Time;durP1;ratioP1;P1;durP2;ratioP2;P2;SDS_P1;SDS_P2;PMS_P1;PMS_P2;Temp;Humidity;BMP_temperature;BMP_pressure;BME280_temperature;BME280_humidity;BME280_pressure;Samples;Min_cycle;Max_cycle;Signal;HPM_P1;HPM_P2
2023/10/12 00:02:04;;;;;;;3.92;3.13;;;20.60;71.70;;;;;;5012587;28;20033;-78
2023/10/12 00:07:33;;;;;;;4.28;3.17;;;20.70;71.70;;;;;;5027551;28;20053;-77
2023/10/12 00:10:20;;;;;;;4.45;3.40;;;20.60;71.60;;;;;;5025957;28;20091;-77
2023/10/12 00:12:38;;;;;;;4.47;3.33;;;20.60;71.70;;;;;;5027309;28;20121;-76
2023/10/12 00:15:22;;;;;;;4.55;3.30;;;20.60;71.70;;;;;;5009707;28;20045;-78
2023/10/12 00:18:08;;;;;;;4.60;3.20;;;20.50;71.60;;;;;;5025884;28;20041;-78
2023/10/12 00:20:38;;;;;;;3.83;3.03;;;20.60;71.70;;;;;;5023578;28;20109;-77
2023/10/12 00:23:15;;;;;;;5.38;3.50;;;20.60;71.70;;;;;;5009642;28;20514;-77
2023/10/12 00:25:58;;;;;;;5.38;3.60;;;20.50;71.70;;;;;;5026520;28;20033;-77
2023/10/12 00:28:38;;;;;;;5.45;3.83;;;20.50;71.70;;;;;;5027293;28;20041;-77
2023/10/12 00:31:11;;;;;;;4.50;3.45;;;20.50;71.70;;;;;;5031377;28;20053;-77
2023/10/12 00:33:38;;;;;;;5.00;3.63;;;20.50;71.70;;;;;;5045220;28;20433;-77
2023/10/12 00:36:11;;;;;;;5.20;3.65;;;20.50;71.70;;;;;;5015522;28;20037;-77
2023/10/12 00:38:38;;;;;;;5.43;3.72;;;20.50;71.70;;;;;;5030775;28;20069;-77
2023/10/12 00:41:05;;;;;;;4.93;3.72;;;20.50;71.70;;;;;;5029914;28;20026;-77
2023/10/12 00:43:37;;;;;;;5.07;3.50;;;20.50;72.40;;;;;;5029260;28;20033;-77
2023/10/12 00:46:58;;;;;;;5.13;3.40;;;20.50;71.80;;;;;;5029020;28;20445;-78
2023/10/12 00:48:55;;;;;;;5.88;3.85;;;20.50;71.80;;;;;;5022472;28;20048;-77
2023/10/12 00:51:22;;;;;;;5.28;3.90;;;20.50;71.80;;;;;;5014705;28;20061;-77
2023/10/12 00:53:57;;;;;;;6.25;3.90;;;20.50;71.80;;;;;;4995637;28;20017;-77
2023/10/12 00:56:28;;;;;;;5.38;4.03;;;20.50;71.80;;;;;;5032039;28;20473;-77
2023/10/12 00:58:55;;;;;;;7.05;4.72;;;20.50;71.90;;;;;;5035295;28;20032;-78
2023/10/12 01:01:23;;;;;;;5.50;4.30;;;20.50;71.90;;;;;;5029635;28;20079;-77
2023/10/12 01:03:49;;;;;;;6.53;4.32;;;20.50;71.90;;;;;;5032573;28;20041;-77
2023/10/12 01:06:28;;;;;;;5.63;3.92;;;20.40;71.90;;;;;;5026724;28;20144;-78
2023/10/12 01:08:59;;;;;;;6.43;4.30;;;20.40;71.90;;;;;;5030720;28;20045;-78
2023/10/12 01:11:36;;;;;;;6.55;4.50;;;20.40;71.90;;;;;;5009476;28;20026;-76
2023/10/12 01:16:46;;;;;;;6.75;4.90;;;20.40;72.00;;;;;;5014285;28;20474;-78
2023/10/12 01:19:20;;;;;;;6.38;4.40;;;20.40;72.10;;;;;;5027312;28;20497;-78
2023/10/12 01:21:47;;;;;;;6.10;4.22;;;20.40;72.00;;;;;;5013427;28;20117;-77
2023/10/12 01:24:13;;;;;;;6.57;4.57;;;20.40;72.10;;;;;;5017956;28;20115;-76
2023/10/12 01:26:45;;;;;;;7.28;4.95;;;20.40;72.10;;;;;;5025117;28;20469;-77
2023/10/12 01:29:20;;;;;;;6.22;4.88;;;20.40;72.20;;;;;;5033275;28;20079;-77
2023/10/12 01:32:08;;;;;;;6.80;4.78;;;20.40;72.20;;;;;;5017736;28;20068;-77
2023/10/12 01:34:37;;;;;;;5.88;4.38;;;20.40;72.20;;;;;;5027128;28;20036;-77
2023/10/12 01:37:11;;;;;;;6.60;5.00;;;20.30;72.10;;;;;;5027631;28;20080;-77
2023/10/12 01:39:39;;;;;;;7.50;4.70;;;20.30;72.20;;;;;;5026220;28;20037;-77
2023/10/12 01:42:06;;;;;;;6.95;4.88;;;20.30;72.20;;;;;;5041754;28;20034;-77
2023/10/12 01:44:35;;;;;;;5.90;4.63;;;20.30;72.20;;;;;;5021227;28;20040;-77
2023/10/12 01:47:01;;;;;;;6.50;5.22;;;20.30;72.20;;;;;;5040173;28;20040;-77
2023/10/12 01:49:27;;;;;;;7.18;5.25;;;20.30;72.20;;;;;;5043652;28;20029;-77
2023/10/12 01:51:52;;;;;;;6.28;5.30;;;20.30;72.30;;;;;;5035872;28;20056;-78
2023/10/12 01:54:24;;;;;;;7.80;5.38;;;20.30;72.30;;;;;;5041592;28;20030;-77
2023/10/12 01:56:52;;;;;;;7.18;5.35;;;20.30;72.30;;;;;;5029481;28;20048;-77
2023/10/12 01:59:20;;;;;;;5.75;4.47;;;20.30;72.40;;;;;;5012091;28;20096;-78
2023/10/12 02:01:54;;;;;;;6.38;5.15;;;20.30;72.40;;;;;;5043364;28;20391;-76
2023/10/12 02:04:24;;;;;;;6.50;5.37;;;20.30;72.40;;;;;;5030478;28;20041;-78
2023/10/12 02:06:51;;;;;;;6.65;4.70;;;20.30;72.40;;;;;;5026491;28;20034;-78
2023/10/12 02:09:22;;;;;;;7.05;5.22;;;20.30;72.40;;;;;;5010944;28;20033;-77
2023/10/12 02:11:53;;;;;;;7.55;5.55;;;20.20;72.40;;;;;;4997103;28;20084;-78
2023/10/12 02:17:15;;;;;;;5.90;4.63;;;20.20;72.40;;;;;;5019637;28;20048;-76
2023/10/12 02:19:42;;;;;;;7.65;5.45;;;20.30;72.40;;;;;;5009338;28;20056;-77
2023/10/12 02:22:18;;;;;;;6.22;5.32;;;20.20;72.40;;;;;;4997121;28;20126;-77
2023/10/12 02:24:50;;;;;;;7.78;5.75;;;20.20;72.40;;;;;;5030348;28;20026;-77
2023/10/12 02:27:17;;;;;;;6.90;5.10;;;20.30;72.50;;;;;;5034851;28;20425;-77
2023/10/12 02:29:48;;;;;;;6.95;5.63;;;20.30;72.60;;;;;;5042414;28;20110;-77
2023/10/12 02:32:23;;;;;;;6.88;5.28;;;20.30;72.50;;;;;;5039984;28;20030;-77
2023/10/12 02:34:55;;;;;;;6.97;4.82;;;20.20;72.50;;;;;;5035645;28;20052;-77
2023/10/12 02:37:24;;;;;;;6.88;5.22;;;20.20;72.50;;;;;;5037984;28;20038;-77
2023/10/12 02:39:53;;;;;;;6.78;5.32;;;20.20;72.50;;;;;;5037445;28;20069;-77
2023/10/12 02:42:38;;;;;;;6.28;4.88;;;20.20;72.50;;;;;;5032919;28;20029;-77
2023/10/12 02:45:16;;;;;;;6.97;5.07;;;20.20;72.50;;;;;;5026096;28;20037;-77
2023/10/12 02:47:45;;;;;;;5.88;4.90;;;20.20;72.50;;;;;;5029070;28;20040;-78
2023/10/12 02:52:44;;;;;;;6.38;4.90;;;20.20;72.50;;;;;;5033380;28;20033;-78
2023/10/12 02:57:54;;;;;;;5.90;4.50;;;20.20;72.60;;;;;;5041527;28;20130;-77
2023/10/12 03:00:43;;;;;;;6.82;4.97;;;20.10;72.50;;;;;;5027094;28;20029;-77
2023/10/12 03:05:47;;;;;;;6.72;4.43;;;20.10;72.50;;;;;;5029405;28;20171;-78
2023/10/12 03:08:14;;;;;;;5.88;4.25;;;20.10;72.60;;;;;;4977859;28;20540;-79
2023/10/12 03:11:01;;;;;;;7.60;5.22;;;20.10;72.60;;;;;;5010904;28;20037;-77
2023/10/12 03:13:35;;;;;;;6.50;4.63;;;20.10;72.60;;;;;;5027004;28;20041;-77
2023/10/12 03:16:14;;;;;;;6.35;4.22;;;20.10;72.60;;;;;;5025601;28;20076;-79
2023/10/12 03:18:42;;;;;;;6.45;4.47;;;20.10;72.60;;;;;;5008622;28;20033;-79
2023/10/12 03:21:11;;;;;;;6.28;4.40;;;20.10;72.70;;;;;;5025753;28;20064;-78
2023/10/12 03:23:46;;;;;;;5.55;4.03;;;20.10;72.70;;;;;;5026779;28;20029;-77
2023/10/12 03:26:24;;;;;;;5.00;3.80;;;20.10;72.70;;;;;;5013581;28;20056;-77
2023/10/12 03:34:20;;;;;;;6.93;4.30;;;20.00;72.60;;;;;;5027071;28;20112;-78
2023/10/12 03:36:49;;;;;;;6.13;4.07;;;20.00;72.60;;;;;;5010542;28;20048;-77
2023/10/12 03:39:25;;;;;;;5.35;3.92;;;20.00;72.70;;;;;;5026736;28;20168;-77
2023/10/12 03:41:55;;;;;;;5.18;3.55;;;20.00;72.70;;;;;;5024774;28;20037;-77
2023/10/12 03:44:36;;;;;;;6.35;3.83;;;20.00;72.70;;;;;;5027524;28;20152;-77
2023/10/12 03:47:15;;;;;;;5.72;3.78;;;20.00;72.70;;;;;;4996541;28;20029;-77
2023/10/12 03:52:30;;;;;;;5.40;3.97;;;20.00;72.70;;;;;;5027990;28;20049;-77
2023/10/12 03:57:39;;;;;;;4.88;3.45;;;19.90;72.70;;;;;;5022272;28;20052;-78
2023/10/12 04:03:05;;;;;;;5.60;3.58;;;19.90;72.70;;;;;;5029586;28;20028;-77
2023/10/12 04:08:01;;;;;;;4.05;3.05;;;19.90;72.80;;;;;;5044588;28;20033;-78
2023/10/12 04:16:27;;;;;;;5.20;3.45;;;19.90;72.80;;;;;;5028950;28;20415;-78
2023/10/12 04:21:33;;;;;;;5.05;3.35;;;19.80;72.70;;;;;;5043440;28;20038;-77
2023/10/12 04:26:44;;;;;;;4.18;2.97;;;19.80;72.80;;;;;;5037265;28;20441;-77
2023/10/12 04:29:21;;;;;;;5.30;3.50;;;19.80;72.80;;;;;;5044310;28;20458;-78
2023/10/12 04:31:50;;;;;;;4.65;3.03;;;19.80;72.80;;;;;;5034893;28;20371;-79
2023/10/12 04:34:16;;;;;;;5.47;3.40;;;19.80;72.90;;;;;;5027848;28;20036;-77
2023/10/12 04:39:15;;;;;;;4.20;3.00;;;19.70;72.80;;;;;;5011493;28;20523;-78
2023/10/12 04:41:52;;;;;;;4.35;3.30;;;19.80;72.90;;;;;;5011539;28;20542;-77
2023/10/12 04:47:10;;;;;;;4.30;3.05;;;19.70;72.80;;;;;;5024909;28;20038;-78
2023/10/12 04:49:54;;;;;;;4.47;3.25;;;19.80;73.00;;;;;;5031959;28;20037;-77
2023/10/12 04:52:26;;;;;;;4.75;3.17;;;19.80;72.90;;;;;;5038263;28;20041;-77
2023/10/12 04:55:19;;;;;;;5.70;3.33;;;19.70;72.90;;;;;;5013511;28;20087;-77
2023/10/12 04:57:47;;;;;;;4.88;3.30;;;19.70;72.90;;;;;;5033117;28;20414;-76
2023/10/12 05:07:55;;;;;;;5.50;3.50;;;19.70;73.00;;;;;;5038737;28;20471;-78
2023/10/12 05:10:28;;;;;;;5.45;3.15;;;19.70;73.10;;;;;;5018649;28;20060;-78
2023/10/12 05:13:04;;;;;;;4.75;3.17;;;19.70;73.10;;;;;;5003727;28;20493;-78
2023/10/12 05:15:42;;;;;;;4.18;3.08;;;19.70;73.10;;;;;;5037135;28;20041;-77
2023/10/12 05:18:13;;;;;;;4.53;3.15;;;19.70;73.10;;;;;;5030211;28;20051;-77
2023/10/12 05:20:42;;;;;;;5.70;3.72;;;19.70;73.20;;;;;;5032670;28;20032;-77
2023/10/12 05:23:10;;;;;;;4.90;3.38;;;19.70;73.10;;;;;;5025109;28;20064;-79
2023/10/12 05:25:53;;;;;;;4.50;3.25;;;19.70;73.20;;;;;;5023494;28;20025;-79
2023/10/12 05:28:27;;;;;;;5.78;3.72;;;19.70;73.20;;;;;;5015711;28;20044;-78
2023/10/12 05:30:59;;;;;;;4.90;3.30;;;19.60;73.20;;;;;;5025566;28;20045;-79
2023/10/12 05:36:05;;;;;;;5.20;3.67;;;19.60;73.20;;;;;;5011550;28;20056;-78
2023/10/12 05:38:37;;;;;;;6.45;4.10;;;19.60;73.20;;;;;;5013890;28;20037;-78
2023/10/12 05:41:12;;;;;;;5.85;3.58;;;19.60;73.20;;;;;;5026592;28;20053;-78
2023/10/12 05:43:39;;;;;;;;;;;19.60;73.30;;;;;;5044849;28;20029;-79
2023/10/12 05:46:16;;;;;;;4.45;3.17;;;19.60;73.10;;;;;;5043146;28;19913;-78
2023/10/12 05:48:51;;;;;;;5.00;3.72;;;19.60;73.20;;;;;;5030366;28;20116;-78
2023/10/12 05:51:19;;;;;;;5.68;4.20;;;19.60;73.40;;;;;;5032870;28;20063;-78
2023/10/12 05:53:48;;;;;;;6.40;4.40;;;19.60;73.40;;;;;;5037029;28;20021;-78
2023/10/12 05:56:18;;;;;;;5.93;4.43;;;19.60;73.40;;;;;;5035534;28;20137;-78
2023/10/12 05:58:44;;;;;;;5.90;4.45;;;19.60;73.40;;;;;;5036393;28;20051;-78
2023/10/12 06:01:10;;;;;;;6.35;4.85;;;19.50;73.40;;;;;;5037156;28;20390;-78
2023/10/12 06:03:38;;;;;;;6.35;4.60;;;19.50;73.40;;;;;;5036991;28;20080;-78
2023/10/12 06:06:06;;;;;;;7.47;5.03;;;19.50;73.40;;;;;;5037009;28;20033;-78
2023/10/12 06:08:34;;;;;;;6.18;5.10;;;19.50;73.40;;;;;;5040246;28;20030;-78
2023/10/12 06:11:01;;;;;;;7.20;5.15;;;19.50;73.40;;;;;;5034666;28;20018;-78
2023/10/12 06:13:31;;;;;;;7.47;5.60;;;19.50;73.50;;;;;;5040256;28;20026;-79
2023/10/12 06:15:57;;;;;;;8.07;6.13;;;19.50;73.50;;;;;;5040049;28;20038;-78
2023/10/12 06:18:30;;;;;;;6.88;6.03;;;19.50;73.50;;;;;;5018181;28;20156;-78
2023/10/12 06:20:59;;;;;;;7.40;6.13;;;19.50;73.50;;;;;;5037503;28;20025;-78
2023/10/12 06:23:25;;;;;;;7.53;5.57;;;19.50;73.50;;;;;;5034161;28;20098;-78
2023/10/12 06:25:51;;;;;;;6.43;5.32;;;19.50;73.50;;;;;;5024125;28;20128;-78
2023/10/12 06:28:17;;;;;;;7.80;6.25;;;19.50;73.50;;;;;;5033286;28;20038;-78
2023/10/12 06:30:50;;;;;;;7.30;5.72;;;19.50;73.60;;;;;;5037242;28;20511;-78
2023/10/12 06:33:17;;;;;;;9.25;6.65;;;19.50;73.60;;;;;;5015553;28;20494;-79
2023/10/12 06:35:58;;;;;;;7.32;6.28;;;19.50;73.50;;;;;;5024889;28;20041;-78
2023/10/12 06:46:19;;;;;;;7.03;5.60;;;19.50;73.50;;;;;;5034687;28;20391;-77
2023/10/12 06:48:46;;;;;;;6.55;5.25;;;19.40;73.50;;;;;;5029887;28;20436;-77
2023/10/12 06:51:15;;;;;;;6.00;5.00;;;19.40;73.50;;;;;;5018193;28;20026;-77
2023/10/12 06:53:53;;;;;;;6.13;4.75;;;19.50;73.60;;;;;;5038089;28;20029;-77
2023/10/12 07:04:16;;;;;;;5.47;3.85;;;19.40;73.40;;;;;;5041598;28;20036;-79
2023/10/12 07:06:56;;;;;;;4.38;3.10;;;19.40;73.50;;;;;;5003967;28;20033;-80
2023/10/12 07:09:39;;;;;;;5.30;3.22;;;19.40;73.50;;;;;;5013019;28;20163;-79
2023/10/12 07:12:11;;;;;;;3.90;2.58;;;19.40;73.60;;;;;;5034072;28;20503;-78
2023/10/12 07:14:42;;;;;;;4.35;2.97;;;19.40;73.50;;;;;;5034410;28;20360;-77
2023/10/12 07:17:09;;;;;;;4.10;2.50;;;19.40;73.50;;;;;;5028346;28;20034;-78
2023/10/12 07:19:40;;;;;;;4.18;2.70;;;19.30;73.50;;;;;;5013796;28;20063;-78
2023/10/12 07:22:15;;;;;;;3.38;2.28;;;19.30;73.50;;;;;;5035235;28;20048;-78
2023/10/12 07:24:44;;;;;;;3.00;2.30;;;19.30;73.50;;;;;;5016533;28;20029;-78
2023/10/12 07:27:18;;;;;;;3.10;2.17;;;19.30;73.50;;;;;;5032137;28;20025;-78
2023/10/12 07:29:47;;;;;;;2.72;2.00;;;19.30;73.50;;;;;;5036148;28;20049;-78
2023/10/12 07:35:17;;;;;;;3.20;2.00;;;19.20;73.50;;;;;;5016978;28;20034;-79
2023/10/12 07:37:43;;;;;;;2.92;1.80;;;19.20;73.50;;;;;;5023720;28;20049;-78
2023/10/12 07:40:19;;;;;;;2.42;1.73;;;19.20;73.60;;;;;;5013258;28;20038;-78
2023/10/12 07:42:48;;;;;;;2.83;1.85;;;19.20;73.60;;;;;;5034292;28;20048;-78
2023/10/12 07:45:18;;;;;;;1.75;1.58;;;19.10;73.50;;;;;;5038368;28;20127;-79
2023/10/12 07:47:58;;;;;;;1.92;1.58;;;19.10;73.60;;;;;;5016979;28;20036;-77
2023/10/12 07:50:25;;;;;;;2.75;1.45;;;19.10;73.60;;;;;;5033695;28;20060;-77
2023/10/12 07:53:06;;;;;;;2.20;1.55;;;19.00;73.60;;;;;;5032834;28;20024;-79
2023/10/12 07:55:41;;;;;;;2.72;1.80;;;19.00;73.60;;;;;;5014400;28;20128;-78
2023/10/12 07:58:12;;;;;;;2.13;1.60;;;19.00;73.70;;;;;;5031458;28;20397;-78
2023/10/12 08:00:41;;;;;;;1.50;1.38;;;19.00;73.70;;;;;;5032658;28;20033;-78
2023/10/12 08:24:10;;;;;;;1.63;1.27;;;18.80;73.90;;;;;;5035474;28;20033;-77
2023/10/12 08:32:11;;;;;;;1.80;1.17;;;18.80;74.00;;;;;;5039806;28;20030;-82
2023/10/12 08:37:18;;;;;;;1.98;1.20;;;18.70;74.00;;;;;;5033355;28;20050;-81
2023/10/12 08:39:51;;;;;;;1.10;0.93;;;18.70;74.10;;;;;;5030289;28;20091;-80
2023/10/12 08:45:15;;;;;;;1.33;1.10;;;18.60;74.10;;;;;;5042711;28;20025;-82
2023/10/12 08:47:49;;;;;;;2.08;1.08;;;18.60;74.10;;;;;;5012777;28;20025;-79
2023/10/12 08:52:51;;;;;;;1.85;1.10;;;18.60;74.10;;;;;;5031999;28;20038;-79
2023/10/12 08:55:24;;;;;;;1.13;1.00;;;18.60;74.10;;;;;;5032482;28;20014;-77
2023/10/12 08:58:02;;;;;;;2.03;1.10;;;18.50;74.20;;;;;;5026618;28;20117;-77
2023/10/12 09:03:06;;;;;;;1.20;0.98;;;18.50;74.20;;;;;;5041996;28;20041;-81
2023/10/12 09:05:35;;;;;;;1.10;1.00;;;18.50;74.20;;;;;;5040599;28;20310;-77
2023/10/12 09:10:52;;;;;;;0.80;0.80;;;18.50;74.20;;;;;;5026147;28;20018;-78
2023/10/12 09:13:34;;;;;;;0.75;0.75;;;18.50;74.30;;;;;;5041445;28;20029;-77
2023/10/12 09:16:11;;;;;;;0.70;0.70;;;18.50;74.30;;;;;;5027749;28;20045;-77
2023/10/12 09:21:38;;;;;;;1.15;0.93;;;18.40;74.30;;;;;;5029685;28;20033;-77
2023/10/12 09:24:06;;;;;;;1.00;0.90;;;18.40;75.00;;;;;;5009652;28;20065;-78
2023/10/12 09:26:34;;;;;;;1.05;0.95;;;18.40;74.30;;;;;;5042393;28;20108;-78
2023/10/12 09:36:53;;;;;;;0.82;0.80;;;18.30;74.30;;;;;;5030496;28;20096;-77
2023/10/12 09:39:24;;;;;;;1.13;0.80;;;18.40;74.40;;;;;;5027110;28;20029;-77
2023/10/12 09:42:09;;;;;;;1.23;0.80;;;18.40;74.40;;;;;;5031072;28;20033;-77
2023/10/12 09:44:39;;;;;;;1.45;1.00;;;18.30;74.40;;;;;;5031455;28;20071;-77
2023/10/12 09:47:11;;;;;;;1.60;0.82;;;18.30;74.30;;;;;;5032878;28;20029;-77
2023/10/12 09:49:44;;;;;;;1.30;0.80;;;18.30;74.40;;;;;;5011603;28;20090;-77
2023/10/12 09:52:17;;;;;;;0.77;0.77;;;18.30;74.40;;;;;;5043897;28;20056;-77
2023/10/12 09:54:53;;;;;;;0.98;0.80;;;18.30;74.50;;;;;;5029756;28;20033;-77
2023/10/12 09:57:23;;;;;;;1.27;0.82;;;18.30;74.50;;;;;;5042572;28;20401;-78
2023/10/12 09:59:59;;;;;;;0.75;0.75;;;18.30;74.50;;;;;;5039180;28;20025;-78
2023/10/12 10:02:30;;;;;;;1.10;0.88;;;18.30;74.50;;;;;;5039427;28;20096;-78
2023/10/12 10:05:01;;;;;;;1.55;0.80;;;18.30;74.50;;;;;;5003302;28;20398;-78
2023/10/12 10:07:36;;;;;;;0.82;0.77;;;18.30;74.50;;;;;;5046994;28;20033;-76
2023/10/12 10:10:16;;;;;;;1.15;0.80;;;18.20;74.60;;;;;;5032800;28;20036;-77
2023/10/12 10:12:42;;;;;;;1.10;0.90;;;18.20;74.50;;;;;;5033337;28;20112;-78
2023/10/12 10:15:20;;;;;;;0.90;0.90;;;18.20;74.50;;;;;;5039653;28;20504;-77
2023/10/12 10:17:52;;;;;;;1.40;0.90;;;18.20;74.60;;;;;;5034327;28;20034;-76
2023/10/12 10:23:01;;;;;;;0.95;0.82;;;18.20;74.60;;;;;;5037332;28;20061;-78
2023/10/12 10:25:46;;;;;;;1.02;0.88;;;18.20;74.60;;;;;;5034803;28;20037;-76
2023/10/12 10:28:25;;;;;;;1.17;1.02;;;18.20;74.60;;;;;;5044162;28;20021;-77
2023/10/12 10:30:56;;;;;;;0.73;0.73;;;18.20;74.60;;;;;;5030441;28;20030;-77
2023/10/12 10:33:24;;;;;;;0.80;0.80;;;18.20;74.60;;;;;;5033631;28;20029;-76
2023/10/12 10:36:24;;;;;;;0.95;0.82;;;18.20;74.70;;;;;;5042802;28;20462;-77
2023/10/12 10:38:54;;;;;;;1.10;0.90;;;18.20;74.80;;;;;;5028171;28;20132;-79
2023/10/12 10:44:13;;;;;;;1.55;0.80;;;18.20;74.80;;;;;;5038380;28;20096;-78
2023/10/12 10:46:44;;;;;;;1.17;0.88;;;18.20;74.70;;;;;;5043917;28;20037;-78
2023/10/12 10:49:15;;;;;;;1.00;1.00;;;18.10;74.70;;;;;;5044574;28;20033;-77
2023/10/12 10:51:48;;;;;;;0.95;0.95;;;18.20;74.80;;;;;;5032615;28;20352;-78
2023/10/12 10:54:20;;;;;;;1.23;1.10;;;18.20;74.80;;;;;;5036896;28;20079;-77
2023/10/12 10:56:47;;;;;;;1.13;1.10;;;18.20;74.80;;;;;;5025339;28;20847;-78
2023/10/12 10:59:14;;;;;;;1.00;1.00;;;18.20;74.80;;;;;;4988661;28;20425;-77
2023/10/12 11:01:46;;;;;;;1.00;1.00;;;18.20;74.80;;;;;;5052512;28;20037;-76
2023/10/12 11:04:59;;;;;;;1.30;1.10;;;18.20;74.80;;;;;;5036321;28;20029;-78
2023/10/12 11:07:03;;;;;;;1.27;1.00;;;18.20;74.80;;;;;;5029157;28;20068;-77
2023/10/12 11:09:31;;;;;;;1.40;1.30;;;18.20;74.80;;;;;;5038949;28;20029;-78
2023/10/12 11:12:01;;;;;;;1.20;1.10;;;18.20;74.80;;;;;;5041726;28;20033;-77
2023/10/12 11:14:35;;;;;;;2.10;1.30;;;18.20;74.90;;;;;;5045341;28;20024;-78
2023/10/12 11:17:05;;;;;;;1.30;1.20;;;18.20;74.90;;;;;;5017328;28;20430;-78
2023/10/12 11:19:33;;;;;;;1.25;1.15;;;18.20;74.80;;;;;;5045441;28;20465;-76
2023/10/12 11:21:58;;;;;;;1.75;1.30;;;18.20;74.80;;;;;;5026906;28;20100;-77
2023/10/12 11:24:25;;;;;;;1.23;1.13;;;18.20;74.90;;;;;;5015981;28;20129;-77
2023/10/12 11:26:57;;;;;;;1.75;1.30;;;18.20;74.80;;;;;;5040021;28;20033;-77
2023/10/12 11:29:24;;;;;;;1.48;1.38;;;18.20;74.90;;;;;;5034881;28;20076;-78
2023/10/12 11:32:08;;;;;;;1.40;1.30;;;18.20;74.90;;;;;;5017342;28;20025;-82
2023/10/12 11:34:45;;;;;;;1.77;1.40;;;18.20;74.90;;;;;;5029735;28;20112;-84
2023/10/12 11:37:14;;;;;;;1.52;1.40;;;18.20;74.80;;;;;;5033429;28;20040;-78
2023/10/12 11:39:44;;;;;;;1.60;1.45;;;18.20;74.80;;;;;;5038330;28;20029;-80
2023/10/12 11:42:13;;;;;;;1.80;1.70;;;18.20;74.90;;;;;;5047886;28;20026;-81
2023/10/12 11:44:43;;;;;;;1.77;1.50;;;18.30;74.90;;;;;;5036162;28;20056;-79
2023/10/12 11:47:14;;;;;;;2.25;1.40;;;18.20;74.90;;;;;;5034572;28;20025;-78
2023/10/12 11:49:48;;;;;;;2.28;1.42;;;18.30;74.90;;;;;;5033571;28;20029;-78
2023/10/12 11:52:21;;;;;;;1.73;1.50;;;18.30;74.90;;;;;;5041884;28;20036;-79
2023/10/12 11:54:48;;;;;;;1.77;1.60;;;18.30;74.90;;;;;;5030842;28;20379;-78
2023/10/12 11:57:14;;;;;;;1.75;1.42;;;18.30;74.90;;;;;;5005610;28;20125;-78
2023/10/12 11:59:39;;;;;;;1.60;1.35;;;18.30;74.90;;;;;;5039380;28;20049;-79
2023/10/12 12:02:08;;;;;;;3.15;1.92;;;18.30;74.90;;;;;;5050266;28;20079;-78
2023/10/12 12:04:40;;;;;;;1.85;1.55;;;18.30;74.90;;;;;;5037302;28;20021;-78
2023/10/12 12:07:10;;;;;;;2.45;1.60;;;18.30;74.90;;;;;;5049844;28;20067;-79
2023/10/12 12:09:40;;;;;;;2.10;1.90;;;18.30;74.90;;;;;;5001466;28;20103;-80
2023/10/12 12:12:12;;;;;;;2.63;2.00;;;18.30;74.90;;;;;;5031584;28;20544;-77
2023/10/12 12:14:46;;;;;;;2.38;1.80;;;18.30;74.90;;;;;;5016518;28;20041;-78
2023/10/12 12:17:13;;;;;;;2.73;1.83;;;18.30;74.90;;;;;;5019140;28;20037;-78
2023/10/12 12:19:41;;;;;;;2.78;2.00;;;18.40;74.90;;;;;;5018995;28;20486;-79
2023/10/12 12:22:10;;;;;;;2.90;1.90;;;18.30;74.90;;;;;;5034528;28;20033;-79
2023/10/12 12:24:37;;;;;;;2.40;1.92;;;18.30;74.80;;;;;;4998863;28;20044;-79
2023/10/12 12:27:10;;;;;;;2.65;1.95;;;18.40;74.90;;;;;;5020957;28;20041;-78
2023/10/12 12:29:36;;;;;;;2.58;2.00;;;18.30;74.80;;;;;;5044839;28;20033;-79
2023/10/12 12:32:03;;;;;;;2.15;1.88;;;18.40;74.90;;;;;;5009269;28;20029;-78
2023/10/12 12:34:38;;;;;;;2.60;2.08;;;18.40;74.90;;;;;;5016280;28;20121;-79
2023/10/12 12:37:07;;;;;;;;;;;18.40;74.90;;;;;;5044707;28;20029;-78
2023/10/12 12:39:34;;;;;;;2.58;1.80;;;18.40;74.70;;;;;;5045026;28;19921;-79
2023/10/12 12:42:07;;;;;;;2.13;1.75;;;18.40;74.60;;;;;;5034004;28;20109;-78
2023/10/12 12:44:33;;;;;;;2.95;2.05;;;18.40;74.80;;;;;;5034632;28;20021;-80
2023/10/12 12:46:59;;;;;;;2.83;2.10;;;18.40;74.80;;;;;;5044334;28;20433;-80
2023/10/12 12:49:25;;;;;;;2.90;2.22;;;18.40;74.80;;;;;;5024766;28;20504;-78
2023/10/12 12:51:51;;;;;;;2.85;2.13;;;18.40;74.80;;;;;;5024305;28;20119;-78
2023/10/12 12:54:17;;;;;;;2.63;1.88;;;18.40;74.80;;;;;;5016679;28;20057;-78
2023/10/12 12:56:43;;;;;;;3.10;2.35;;;18.40;74.80;;;;;;5024306;28;20091;-78
2023/10/12 12:59:10;;;;;;;2.40;1.98;;;18.40;74.80;;;;;;5039247;28;20436;-78
2023/10/12 13:01:38;;;;;;;3.00;2.30;;;18.50;74.90;;;;;;5035870;28;20112;-78
2023/10/12 13:04:04;;;;;;;2.58;2.17;;;18.50;74.80;;;;;;5015942;28;20492;-78
2023/10/12 13:06:33;;;;;;;2.83;2.10;;;18.40;74.80;;;;;;5032184;28;20037;-78
2023/10/12 13:09:01;;;;;;;2.55;1.95;;;18.50;74.80;;;;;;5029051;28;20033;-78
2023/10/12 13:11:27;;;;;;;2.63;2.03;;;18.50;74.80;;;;;;5020302;28;20026;-78
2023/10/12 13:13:53;;;;;;;2.90;2.17;;;18.50;74.80;;;;;;5025076;28;20202;-78
2023/10/12 13:16:19;;;;;;;3.75;2.58;;;18.50;74.80;;;;;;5037931;28;20034;-78
2023/10/12 13:18:46;;;;;;;2.78;2.30;;;18.50;74.80;;;;;;5024659;28;20032;-78
2023/10/12 13:21:15;;;;;;;3.60;2.40;;;18.50;74.80;;;;;;5029809;28;20091;-78
2023/10/12 13:23:45;;;;;;;2.83;2.08;;;18.50;74.80;;;;;;5035361;28;20509;-78
2023/10/12 13:26:17;;;;;;;3.15;2.50;;;18.50;74.80;;;;;;5041764;28;20503;-78
2023/10/12 13:28:44;;;;;;;2.97;2.38;;;18.50;74.70;;;;;;5017347;28;20032;-78
2023/10/12 13:31:13;;;;;;;3.17;2.38;;;18.50;74.70;;;;;;5020332;28;20041;-78
2023/10/12 13:33:41;;;;;;;2.95;2.25;;;18.50;74.70;;;;;;5032082;28;20029;-78
2023/10/12 13:36:08;;;;;;;3.15;2.47;;;18.50;74.60;;;;;;5039972;28;20030;-78
2023/10/12 13:38:36;;;;;;;3.53;2.55;;;18.60;74.70;;;;;;5037877;28;20087;-79
2023/10/12 13:41:02;;;;;;;3.67;2.53;;;18.60;74.70;;;;;;5041928;28;20040;-78
2023/10/12 13:43:31;;;;;;;3.25;2.40;;;18.60;74.70;;;;;;5043009;28;20040;-78
2023/10/12 13:45:58;;;;;;;4.57;2.50;;;18.60;74.80;;;;;;5006710;28;20044;-78
2023/10/12 13:48:27;;;;;;;3.97;2.45;;;18.60;74.70;;;;;;5040805;28;20033;-77
2023/10/12 13:51:01;;;;;;;3.20;2.20;;;18.60;74.70;;;;;;5039893;28;20033;-78
2023/10/12 13:53:37;;;;;;;3.20;2.03;;;18.60;74.70;;;;;;5023189;28;20452;-78
2023/10/12 13:56:11;;;;;;;2.72;2.28;;;18.60;74.70;;;;;;5037252;28;20025;-78
2023/10/12 13:58:44;;;;;;;2.97;2.33;;;18.60;74.70;;;;;;5025207;28;20090;-78
2023/10/12 14:01:18;;;;;;;4.32;2.65;;;18.60;74.70;;;;;;5045175;28;20112;-78
2023/10/12 14:03:45;;;;;;;4.82;3.00;;;18.60;74.60;;;;;;5041310;28;20087;-78
2023/10/12 14:06:11;;;;;;;3.53;2.50;;;18.60;74.60;;;;;;5012697;28;20034;-79
2023/10/12 14:08:40;;;;;;;3.10;2.22;;;18.60;74.60;;;;;;5039750;28;20029;-79
2023/10/12 14:11:06;;;;;;;3.00;2.20;;;18.60;74.60;;;;;;5015554;28;20030;-79
2023/10/12 14:13:33;;;;;;;3.78;2.72;;;18.60;74.60;;;;;;5036840;28;20131;-79
2023/10/12 14:15:59;;;;;;;3.88;2.67;;;18.60;74.60;;;;;;5036075;28;20049;-79
2023/10/12 14:18:28;;;;;;;5.05;2.95;;;18.70;74.70;;;;;;5037552;28;20029;-78
2023/10/12 14:20:55;;;;;;;3.90;2.47;;;18.60;74.60;;;;;;5027155;28;20367;-81
2023/10/12 14:23:26;;;;;;;3.25;2.60;;;18.70;74.70;;;;;;5042994;28;20025;-79
2023/10/12 14:25:54;;;;;;;4.63;2.90;;;18.70;74.60;;;;;;5019997;28;20437;-80
2023/10/12 14:28:20;;;;;;;4.68;2.92;;;18.70;74.60;;;;;;5016499;28;20036;-80
2023/10/12 14:30:50;;;;;;;3.22;2.45;;;18.70;74.60;;;;;;5036407;28;20087;-79
2023/10/12 14:33:20;;;;;;;3.88;2.90;;;18.70;74.60;;;;;;5035912;28;20028;-80
2023/10/12 14:35:47;;;;;;;3.17;2.53;;;18.70;74.60;;;;;;5027098;28;20492;-79
2023/10/12 14:38:19;;;;;;;3.50;2.80;;;18.70;74.50;;;;;;5041429;28;20056;-79
2023/10/12 14:40:45;;;;;;;3.65;2.55;;;18.70;74.50;;;;;;5018733;28;20034;-79
2023/10/12 14:43:12;;;;;;;3.83;2.80;;;18.70;74.50;;;;;;5034478;28;20091;-80
2023/10/12 14:45:45;;;;;;;3.38;2.40;;;18.70;74.50;;;;;;5028733;28;20034;-80
2023/10/12 14:48:16;;;;;;;3.78;2.92;;;18.70;74.40;;;;;;5032767;28;20068;-79
2023/10/12 14:50:46;;;;;;;3.85;2.63;;;18.70;74.40;;;;;;5035742;28;20496;-79
2023/10/12 14:53:21;;;;;;;3.67;2.75;;;18.70;74.40;;;;;;5018932;28;20029;-81
2023/10/12 14:55:51;;;;;;;3.45;2.78;;;18.70;74.40;;;;;;5031445;28;20033;-79
2023/10/12 14:58:21;;;;;;;4.18;2.92;;;18.70;74.50;;;;;;5042709;28;20045;-80
2023/10/12 15:00:50;;;;;;;4.45;3.00;;;18.80;74.60;;;;;;5038494;28;20040;-81
2023/10/12 15:03:21;;;;;;;4.30;3.13;;;18.70;74.50;;;;;;5052665;28;20022;-79
2023/10/12 15:05:53;;;;;;;4.15;3.30;;;18.70;74.50;;;;;;5036193;28;20064;-82
2023/10/12 15:08:25;;;;;;;3.92;2.80;;;18.80;74.50;;;;;;5028213;28;20386;-79
2023/10/12 15:10:54;;;;;;;4.35;2.88;;;18.70;74.40;;;;;;5040679;28;20485;-80
2023/10/12 15:13:22;;;;;;;4.03;2.90;;;18.80;74.50;;;;;;5032212;28;20040;-79
2023/10/12 15:15:49;;;;;;;4.05;2.92;;;18.80;74.50;;;;;;5007412;28;20146;-80
2023/10/12 15:18:18;;;;;;;4.13;3.08;;;18.80;74.50;;;;;;5036253;28;20536;-79
2023/10/12 15:20:48;;;;;;;4.50;3.25;;;18.80;74.50;;;;;;5033169;28;20042;-86
2023/10/12 15:23:16;;;;;;;3.92;2.92;;;18.80;74.50;;;;;;5016127;28;20062;-79